sensor_id;sensor_type;location;lat;lon;timestamp;P1;durP1;ratioP1;P2;durP2;ratioP2
22268;SDS011;11303;50.772;19.670;2022-11-15T00:01:09;334.30;;;55.67;;
22268;SDS011;11303;50.772;19.670;2022-11-15T00:03:14;350.25;;;57.00;;
22268;SDS011;11303;50.772;19.670;2022-11-15T00:05:19;423.20;;;56.38;;
22268;SDS011;11303;50.772;19.670;2022-11-15T00:07:21;406.38;;;54.50;;
22268;SDS011;11303;50.772;19.670;2022-11-15T00:09:42;314.25;;;48.00;;
22268;SDS011;11303;50.772;19.670;2022-11-15T00:11:46;440.40;;;47.25;;
22268;SDS011;11303;50.772;19.670;2022-11-15T00:13:47;387.33;;;65.63;;
22268;SDS011;11303;50.772;19.670;2022-11-15T00:15:49;438.63;;;53.90;;
22268;SDS011;11303;50.772;19.670;2022-11-15T00:17:50;421.88;;;56.50;;
22268;SDS011;11303;50.772;19.670;2022-11-15T00:19:52;355.15;;;50.70;;
22268;SDS011;11303;50.772;19.670;2022-11-15T00:21:53;390.88;;;61.63;;
22268;SDS011;11303;50.772;19.670;2022-11-15T00:23:55;414.85;;;58.63;;
22268;SDS011;11303;50.772;19.670;2022-11-15T00:25:57;417.45;;;55.75;;
22268;SDS011;11303;50.772;19.670;2022-11-15T00:27:59;586.65;;;73.32;;
22268;SDS011;11303;50.772;19.670;2022-11-15T00:30:01;505.15;;;68.47;;
22268;SDS011;11303;50.772;19.670;2022-11-15T00:32:02;499.98;;;66.47;;
22268;SDS011;11303;50.772;19.670;2022-11-15T00:34:04;476.35;;;69.50;;
22268;SDS011;11303;50.772;19.670;2022-11-15T00:36:06;584.50;;;74.15;;
22268;SDS011;11303;50.772;19.670;2022-11-15T00:38:12;477.25;;;60.20;;
22268;SDS011;11303;50.772;19.670;2022-11-15T00:40:14;502.48;;;61.35;;
22268;SDS011;11303;50.772;19.670;2022-11-15T00:42:16;491.73;;;60.88;;
22268;SDS011;11303;50.772;19.670;2022-11-15T00:44:17;496.85;;;56.72;;
22268;SDS011;11303;50.772;19.670;2022-11-15T00:46:19;529.70;;;61.20;;
22268;SDS011;11303;50.772;19.670;2022-11-15T00:48:21;592.67;;;59.65;;
22268;SDS011;11303;50.772;19.670;2022-11-15T00:50:22;502.73;;;60.67;;
22268;SDS011;11303;50.772;19.670;2022-11-15T00:52:24;484.63;;;60.80;;
22268;SDS011;11303;50.772;19.670;2022-11-15T00:54:25;505.17;;;60.80;;
22268;SDS011;11303;50.772;19.670;2022-11-15T00:56:27;508.08;;;60.00;;
22268;SDS011;11303;50.772;19.670;2022-11-15T00:58:28;409.17;;;52.88;;
22268;SDS011;11303;50.772;19.670;2022-11-15T01:00:30;368.63;;;47.67;;
22268;SDS011;11303;50.772;19.670;2022-11-15T01:02:32;554.03;;;53.60;;
22268;SDS011;11303;50.772;19.670;2022-11-15T01:04:33;374.67;;;42.42;;
22268;SDS011;11303;50.772;19.670;2022-11-15T01:06:35;361.58;;;43.00;;
22268;SDS011;11303;50.772;19.670;2022-11-15T01:08:36;427.42;;;48.28;;
22268;SDS011;11303;50.772;19.670;2022-11-15T01:10:39;472.80;;;47.50;;
22268;SDS011;11303;50.772;19.670;2022-11-15T01:12:41;439.15;;;44.83;;
22268;SDS011;11303;50.772;19.670;2022-11-15T01:14:43;485.30;;;48.80;;
22268;SDS011;11303;50.772;19.670;2022-11-15T01:16:44;644.40;;;55.60;;
22268;SDS011;11303;50.772;19.670;2022-11-15T01:18:46;595.03;;;55.03;;
22268;SDS011;11303;50.772;19.670;2022-11-15T01:20:47;450.95;;;49.97;;
22268;SDS011;11303;50.772;19.670;2022-11-15T01:22:49;558.63;;;53.75;;
22268;SDS011;11303;50.772;19.670;2022-11-15T01:24:50;676.92;;;58.22;;
22268;SDS011;11303;50.772;19.670;2022-11-15T01:26:52;596.83;;;56.33;;
22268;SDS011;11303;50.772;19.670;2022-11-15T01:28:53;662.97;;;59.00;;
22268;SDS011;11303;50.772;19.670;2022-11-15T01:30:57;629.65;;;59.13;;
22268;SDS011;11303;50.772;19.670;2022-11-15T01:32:59;581.35;;;55.35;;
22268;SDS011;11303;50.772;19.670;2022-11-15T01:35:01;623.83;;;63.70;;
22268;SDS011;11303;50.772;19.670;2022-11-15T01:37:02;532.40;;;53.33;;
22268;SDS011;11303;50.772;19.670;2022-11-15T01:39:04;418.73;;;53.38;;
22268;SDS011;11303;50.772;19.670;2022-11-15T01:41:05;356.80;;;48.05;;
22268;SDS011;11303;50.772;19.670;2022-11-15T01:43:20;348.38;;;45.63;;
22268;SDS011;11303;50.772;19.670;2022-11-15T01:45:24;449.00;;;51.67;;
22268;SDS011;11303;50.772;19.670;2022-11-15T01:47:28;360.50;;;45.00;;
22268;SDS011;11303;50.772;19.670;2022-11-15T01:49:35;407.02;;;46.28;;
22268;SDS011;11303;50.772;19.670;2022-11-15T01:51:39;508.25;;;50.83;;
22268;SDS011;11303;50.772;19.670;2022-11-15T01:53:41;364.00;;;40.78;;
22268;SDS011;11303;50.772;19.670;2022-11-15T01:55:46;388.92;;;41.78;;
22268;SDS011;11303;50.772;19.670;2022-11-15T01:57:50;359.48;;;36.92;;
22268;SDS011;11303;50.772;19.670;2022-11-15T01:59:55;391.48;;;42.03;;
22268;SDS011;11303;50.772;19.670;2022-11-15T02:01:58;354.83;;;40.80;;
22268;SDS011;11303;50.772;19.670;2022-11-15T02:06:08;362.75;;;47.53;;
22268;SDS011;11303;50.772;19.670;2022-11-15T02:08:10;466.95;;;46.90;;
22268;SDS011;11303;50.772;19.670;2022-11-15T02:10:22;455.63;;;48.40;;
22268;SDS011;11303;50.772;19.670;2022-11-15T02:12:24;502.67;;;53.17;;
22268;SDS011;11303;50.772;19.670;2022-11-15T02:14:26;467.50;;;51.40;;
22268;SDS011;11303;50.772;19.670;2022-11-15T02:21:24;317.42;;;41.75;;
22268;SDS011;11303;50.772;19.670;2022-11-15T02:25:57;381.35;;;37.92;;
22268;SDS011;11303;50.772;19.670;2022-11-15T02:30:47;378.40;;;44.88;;
22268;SDS011;11303;50.772;19.670;2022-11-15T02:35:34;452.35;;;45.58;;
22268;SDS011;11303;50.772;19.670;2022-11-15T02:37:51;438.58;;;42.78;;
22268;SDS011;11303;50.772;19.670;2022-11-15T02:40:06;346.67;;;41.92;;
22268;SDS011;11303;50.772;19.670;2022-11-15T02:42:17;347.40;;;42.85;;
22268;SDS011;11303;50.772;19.670;2022-11-15T02:44:54;475.67;;;47.95;;
22268;SDS011;11303;50.772;19.670;2022-11-15T02:46:59;522.10;;;51.20;;
22268;SDS011;11303;50.772;19.670;2022-11-15T02:49:14;568.88;;;53.58;;
22268;SDS011;11303;50.772;19.670;2022-11-15T02:51:16;631.75;;;55.80;;
22268;SDS011;11303;50.772;19.670;2022-11-15T02:53:23;494.95;;;48.58;;
22268;SDS011;11303;50.772;19.670;2022-11-15T03:08:48;554.20;;;56.97;;
22268;SDS011;11303;50.772;19.670;2022-11-15T03:11:11;527.63;;;56.90;;
22268;SDS011;11303;50.772;19.670;2022-11-15T03:13:25;452.98;;;58.08;;
22268;SDS011;11303;50.772;19.670;2022-11-15T03:15:34;486.60;;;53.67;;
22268;SDS011;11303;50.772;19.670;2022-11-15T03:17:53;447.75;;;44.55;;
22268;SDS011;11303;50.772;19.670;2022-11-15T03:20:01;474.25;;;54.50;;
22268;SDS011;11303;50.772;19.670;2022-11-15T03:22:06;415.98;;;54.83;;
22268;SDS011;11303;50.772;19.670;2022-11-15T03:24:11;514.38;;;62.42;;
22268;SDS011;11303;50.772;19.670;2022-11-15T03:26:15;396.75;;;57.25;;
22268;SDS011;11303;50.772;19.670;2022-11-15T03:28:22;360.83;;;44.25;;
22268;SDS011;11303;50.772;19.670;2022-11-15T03:30:26;470.77;;;51.72;;
22268;SDS011;11303;50.772;19.670;2022-11-15T03:32:29;432.85;;;43.90;;
22268;SDS011;11303;50.772;19.670;2022-11-15T03:34:41;498.20;;;47.67;;
22268;SDS011;11303;50.772;19.670;2022-11-15T03:36:47;425.63;;;50.42;;
22268;SDS011;11303;50.772;19.670;2022-11-15T03:38:53;489.15;;;57.45;;
22268;SDS011;11303;50.772;19.670;2022-11-15T03:40:59;499.67;;;57.85;;
22268;SDS011;11303;50.772;19.670;2022-11-15T03:45:25;617.30;;;77.90;;
22268;SDS011;11303;50.772;19.670;2022-11-15T03:49:35;378.73;;;40.10;;
22268;SDS011;11303;50.772;19.670;2022-11-15T03:51:39;496.38;;;57.75;;
22268;SDS011;11303;50.772;19.670;2022-11-15T03:53:41;522.40;;;53.70;;
22268;SDS011;11303;50.772;19.670;2022-11-15T03:55:43;462.38;;;48.42;;
22268;SDS011;11303;50.772;19.670;2022-11-15T03:57:44;473.48;;;55.15;;
22268;SDS011;11303;50.772;19.670;2022-11-15T03:59:47;387.58;;;49.65;;
22268;SDS011;11303;50.772;19.670;2022-11-15T04:01:48;355.02;;;45.17;;
22268;SDS011;11303;50.772;19.670;2022-11-15T04:03:50;360.73;;;50.83;;
22268;SDS011;11303;50.772;19.670;2022-11-15T04:05:51;539.33;;;57.97;;
22268;SDS011;11303;50.772;19.670;2022-11-15T04:07:53;451.92;;;47.83;;
22268;SDS011;11303;50.772;19.670;2022-11-15T04:09:54;476.67;;;52.67;;
22268;SDS011;11303;50.772;19.670;2022-11-15T04:12:05;399.83;;;47.28;;
22268;SDS011;11303;50.772;19.670;2022-11-15T04:14:06;394.60;;;44.40;;
22268;SDS011;11303;50.772;19.670;2022-11-15T04:16:08;486.23;;;53.92;;
22268;SDS011;11303;50.772;19.670;2022-11-15T04:18:09;446.13;;;53.42;;
22268;SDS011;11303;50.772;19.670;2022-11-15T04:20:13;342.77;;;47.40;;
22268;SDS011;11303;50.772;19.670;2022-11-15T04:22:35;506.98;;;54.70;;
22268;SDS011;11303;50.772;19.670;2022-11-15T04:24:55;570.42;;;58.03;;
22268;SDS011;11303;50.772;19.670;2022-11-15T04:26:57;447.17;;;53.63;;
22268;SDS011;11303;50.772;19.670;2022-11-15T04:28:58;486.83;;;54.42;;
22268;SDS011;11303;50.772;19.670;2022-11-15T04:31:18;497.10;;;53.85;;
22268;SDS011;11303;50.772;19.670;2022-11-15T04:33:20;417.23;;;49.00;;
22268;SDS011;11303;50.772;19.670;2022-11-15T04:35:22;482.08;;;54.40;;
22268;SDS011;11303;50.772;19.670;2022-11-15T04:37:24;435.80;;;50.38;;
22268;SDS011;11303;50.772;19.670;2022-11-15T04:39:25;318.33;;;41.55;;
22268;SDS011;11303;50.772;19.670;2022-11-15T04:41:27;391.92;;;51.95;;
22268;SDS011;11303;50.772;19.670;2022-11-15T04:43:30;503.40;;;59.47;;
22268;SDS011;11303;50.772;19.670;2022-11-15T04:45:32;432.85;;;53.72;;
22268;SDS011;11303;50.772;19.670;2022-11-15T04:47:33;494.40;;;70.72;;
22268;SDS011;11303;50.772;19.670;2022-11-15T04:49:35;489.20;;;64.63;;
22268;SDS011;11303;50.772;19.670;2022-11-15T04:51:37;461.52;;;58.75;;
22268;SDS011;11303;50.772;19.670;2022-11-15T04:53:38;459.13;;;59.88;;
22268;SDS011;11303;50.772;19.670;2022-11-15T04:55:40;432.08;;;47.22;;
22268;SDS011;11303;50.772;19.670;2022-11-15T04:57:45;545.72;;;54.58;;
22268;SDS011;11303;50.772;19.670;2022-11-15T04:59:47;546.90;;;54.35;;
22268;SDS011;11303;50.772;19.670;2022-11-15T05:01:48;440.50;;;47.65;;
22268;SDS011;11303;50.772;19.670;2022-11-15T05:03:50;526.72;;;52.88;;
22268;SDS011;11303;50.772;19.670;2022-11-15T05:06:10;433.38;;;55.38;;
22268;SDS011;11303;50.772;19.670;2022-11-15T05:08:11;400.23;;;49.63;;
22268;SDS011;11303;50.772;19.670;2022-11-15T05:10:13;448.77;;;53.03;;
22268;SDS011;11303;50.772;19.670;2022-11-15T05:12:14;495.55;;;63.38;;
22268;SDS011;11303;50.772;19.670;2022-11-15T05:14:16;426.00;;;55.90;;
22268;SDS011;11303;50.772;19.670;2022-11-15T05:16:17;464.40;;;59.72;;
22268;SDS011;11303;50.772;19.670;2022-11-15T05:18:19;496.52;;;62.33;;
22268;SDS011;11303;50.772;19.670;2022-11-15T05:20:24;461.70;;;57.35;;
22268;SDS011;11303;50.772;19.670;2022-11-15T05:22:25;412.48;;;50.95;;
22268;SDS011;11303;50.772;19.670;2022-11-15T05:24:27;318.85;;;47.75;;
22268;SDS011;11303;50.772;19.670;2022-11-15T05:26:29;330.30;;;43.70;;
22268;SDS011;11303;50.772;19.670;2022-11-15T05:28:31;302.10;;;47.22;;
22268;SDS011;11303;50.772;19.670;2022-11-15T05:30:33;245.75;;;41.15;;
22268;SDS011;11303;50.772;19.670;2022-11-15T05:32:34;283.38;;;38.63;;
22268;SDS011;11303;50.772;19.670;2022-11-15T05:34:36;234.95;;;36.17;;
22268;SDS011;11303;50.772;19.670;2022-11-15T05:36:38;308.17;;;41.05;;
22268;SDS011;11303;50.772;19.670;2022-11-15T05:38:43;330.00;;;46.83;;
22268;SDS011;11303;50.772;19.670;2022-11-15T05:40:45;361.70;;;46.20;;
22268;SDS011;11303;50.772;19.670;2022-11-15T05:42:47;399.17;;;51.35;;
22268;SDS011;11303;50.772;19.670;2022-11-15T05:44:49;368.90;;;50.28;;
22268;SDS011;11303;50.772;19.670;2022-11-15T05:46:50;331.40;;;47.35;;
22268;SDS011;11303;50.772;19.670;2022-11-15T05:48:57;296.15;;;46.38;;
22268;SDS011;11303;50.772;19.670;2022-11-15T05:50:59;295.60;;;46.97;;
22268;SDS011;11303;50.772;19.670;2022-11-15T05:53:01;326.55;;;50.05;;
22268;SDS011;11303;50.772;19.670;2022-11-15T05:55:05;316.58;;;40.45;;
22268;SDS011;11303;50.772;19.670;2022-11-15T05:57:09;235.15;;;40.95;;
22268;SDS011;11303;50.772;19.670;2022-11-15T05:59:11;280.10;;;42.42;;
22268;SDS011;11303;50.772;19.670;2022-11-15T06:01:13;246.13;;;41.05;;
22268;SDS011;11303;50.772;19.670;2022-11-15T06:03:15;295.05;;;41.97;;
22268;SDS011;11303;50.772;19.670;2022-11-15T06:05:17;296.30;;;43.35;;
22268;SDS011;11303;50.772;19.670;2022-11-15T06:07:18;372.20;;;48.78;;
22268;SDS011;11303;50.772;19.670;2022-11-15T06:09:20;352.63;;;46.65;;
22268;SDS011;11303;50.772;19.670;2022-11-15T06:11:21;237.40;;;37.25;;
22268;SDS011;11303;50.772;19.670;2022-11-15T06:13:23;275.10;;;38.38;;
22268;SDS011;11303;50.772;19.670;2022-11-15T06:15:24;311.42;;;44.47;;
22268;SDS011;11303;50.772;19.670;2022-11-15T06:17:26;277.60;;;40.25;;
22268;SDS011;11303;50.772;19.670;2022-11-15T06:19:27;243.48;;;40.42;;
22268;SDS011;11303;50.772;19.670;2022-11-15T06:21:33;255.40;;;44.88;;
22268;SDS011;11303;50.772;19.670;2022-11-15T06:23:35;355.15;;;56.30;;
22268;SDS011;11303;50.772;19.670;2022-11-15T06:25:36;300.83;;;46.67;;
22268;SDS011;11303;50.772;19.670;2022-11-15T06:27:38;239.85;;;34.55;;
22268;SDS011;11303;50.772;19.670;2022-11-15T06:29:39;241.32;;;39.28;;
22268;SDS011;11303;50.772;19.670;2022-11-15T06:31:41;278.67;;;38.28;;
22268;SDS011;11303;50.772;19.670;2022-11-15T06:33:42;279.63;;;39.00;;
22268;SDS011;11303;50.772;19.670;2022-11-15T06:35:44;347.30;;;43.75;;
22268;SDS011;11303;50.772;19.670;2022-11-15T06:37:45;345.45;;;44.00;;
22268;SDS011;11303;50.772;19.670;2022-11-15T06:39:47;319.50;;;45.53;;
22268;SDS011;11303;50.772;19.670;2022-11-15T06:41:48;399.85;;;43.05;;
22268;SDS011;11303;50.772;19.670;2022-11-15T06:43:50;396.67;;;42.92;;
22268;SDS011;11303;50.772;19.670;2022-11-15T06:45:52;342.52;;;53.65;;
22268;SDS011;11303;50.772;19.670;2022-11-15T06:47:53;327.85;;;43.70;;
22268;SDS011;11303;50.772;19.670;2022-11-15T06:49:55;302.67;;;36.28;;
22268;SDS011;11303;50.772;19.670;2022-11-15T06:51:56;317.60;;;43.53;;
22268;SDS011;11303;50.772;19.670;2022-11-15T06:53:58;417.65;;;68.85;;
22268;SDS011;11303;50.772;19.670;2022-11-15T06:56:00;354.33;;;72.95;;
22268;SDS011;11303;50.772;19.670;2022-11-15T06:58:06;322.15;;;53.10;;
22268;SDS011;11303;50.772;19.670;2022-11-15T07:00:08;351.13;;;45.88;;
22268;SDS011;11303;50.772;19.670;2022-11-15T07:02:13;346.30;;;39.83;;
22268;SDS011;11303;50.772;19.670;2022-11-15T07:04:14;267.65;;;38.58;;
22268;SDS011;11303;50.772;19.670;2022-11-15T07:06:16;524.97;;;49.92;;
22268;SDS011;11303;50.772;19.670;2022-11-15T07:08:17;360.70;;;57.85;;
22268;SDS011;11303;50.772;19.670;2022-11-15T07:10:19;384.77;;;66.18;;
22268;SDS011;11303;50.772;19.670;2022-11-15T07:12:21;328.90;;;51.95;;
22268;SDS011;11303;50.772;19.670;2022-11-15T07:14:23;375.65;;;48.75;;
22268;SDS011;11303;50.772;19.670;2022-11-15T07:16:24;248.43;;;44.72;;
22268;SDS011;11303;50.772;19.670;2022-11-15T07:18:25;240.38;;;37.05;;
22268;SDS011;11303;50.772;19.670;2022-11-15T07:20:28;286.08;;;36.03;;
22268;SDS011;11303;50.772;19.670;2022-11-15T07:22:29;279.20;;;33.53;;
22268;SDS011;11303;50.772;19.670;2022-11-15T07:24:31;228.45;;;35.55;;
22268;SDS011;11303;50.772;19.670;2022-11-15T07:26:33;281.55;;;53.72;;
22268;SDS011;11303;50.772;19.670;2022-11-15T07:28:34;191.02;;;38.05;;
22268;SDS011;11303;50.772;19.670;2022-11-15T07:30:36;224.60;;;33.50;;
22268;SDS011;11303;50.772;19.670;2022-11-15T07:32:45;160.90;;;27.55;;
22268;SDS011;11303;50.772;19.670;2022-11-15T07:34:47;221.52;;;30.90;;
22268;SDS011;11303;50.772;19.670;2022-11-15T07:36:49;197.63;;;28.90;;
22268;SDS011;11303;50.772;19.670;2022-11-15T07:38:50;178.32;;;28.20;;
22268;SDS011;11303;50.772;19.670;2022-11-15T07:40:55;350.60;;;38.60;;
22268;SDS011;11303;50.772;19.670;2022-11-15T07:43:04;351.92;;;38.85;;
22268;SDS011;11303;50.772;19.670;2022-11-15T07:45:09;212.23;;;35.35;;
22268;SDS011;11303;50.772;19.670;2022-11-15T07:47:10;246.85;;;38.53;;
22268;SDS011;11303;50.772;19.670;2022-11-15T07:49:12;311.92;;;39.90;;
22268;SDS011;11303;50.772;19.670;2022-11-15T07:51:14;243.68;;;40.50;;
22268;SDS011;11303;50.772;19.670;2022-11-15T07:53:17;185.32;;;38.92;;
22268;SDS011;11303;50.772;19.670;2022-11-15T07:55:18;253.25;;;43.53;;
22268;SDS011;11303;50.772;19.670;2022-11-15T07:57:19;181.65;;;38.78;;
22268;SDS011;11303;50.772;19.670;2022-11-15T07:59:21;237.07;;;36.67;;
22268;SDS011;11303;50.772;19.670;2022-11-15T08:01:22;142.82;;;33.00;;
22268;SDS011;11303;50.772;19.670;2022-11-15T08:03:24;172.13;;;29.45;;
22268;SDS011;11303;50.772;19.670;2022-11-15T08:05:26;144.95;;;30.27;;
22268;SDS011;11303;50.772;19.670;2022-11-15T08:07:30;160.50;;;31.10;;
22268;SDS011;11303;50.772;19.670;2022-11-15T08:09:32;150.00;;;27.92;;
22268;SDS011;11303;50.772;19.670;2022-11-15T08:11:34;145.52;;;31.02;;
22268;SDS011;11303;50.772;19.670;2022-11-15T08:13:35;212.77;;;30.70;;
22268;SDS011;11303;50.772;19.670;2022-11-15T08:15:37;191.68;;;27.08;;
22268;SDS011;11303;50.772;19.670;2022-11-15T08:17:39;165.65;;;28.42;;
22268;SDS011;11303;50.772;19.670;2022-11-15T08:19:41;139.88;;;35.65;;
22268;SDS011;11303;50.772;19.670;2022-11-15T08:21:42;185.13;;;38.25;;
22268;SDS011;11303;50.772;19.670;2022-11-15T08:23:44;143.10;;;36.15;;
22268;SDS011;11303;50.772;19.670;2022-11-15T08:25:45;165.75;;;38.53;;
22268;SDS011;11303;50.772;19.670;2022-11-15T08:27:47;230.75;;;30.83;;
22268;SDS011;11303;50.772;19.670;2022-11-15T08:29:49;125.60;;;28.98;;
22268;SDS011;11303;50.772;19.670;2022-11-15T08:31:56;130.02;;;26.52;;
22268;SDS011;11303;50.772;19.670;2022-11-15T08:33:58;214.30;;;30.13;;
22268;SDS011;11303;50.772;19.670;2022-11-15T08:36:00;144.48;;;29.23;;
22268;SDS011;11303;50.772;19.670;2022-11-15T08:38:01;120.10;;;29.73;;
22268;SDS011;11303;50.772;19.670;2022-11-15T08:40:03;132.38;;;29.10;;
22268;SDS011;11303;50.772;19.670;2022-11-15T08:42:05;114.15;;;31.77;;
22268;SDS011;11303;50.772;19.670;2022-11-15T08:44:07;115.05;;;31.70;;
22268;SDS011;11303;50.772;19.670;2022-11-15T08:46:10;118.65;;;29.98;;
22268;SDS011;11303;50.772;19.670;2022-11-15T08:48:13;98.60;;;32.58;;
22268;SDS011;11303;50.772;19.670;2022-11-15T08:50:15;93.30;;;28.95;;
22268;SDS011;11303;50.772;19.670;2022-11-15T08:52:17;134.38;;;34.30;;
22268;SDS011;11303;50.772;19.670;2022-11-15T08:54:19;104.32;;;36.25;;
22268;SDS011;11303;50.772;19.670;2022-11-15T08:56:20;98.68;;;28.98;;
22268;SDS011;11303;50.772;19.670;2022-11-15T08:58:22;84.40;;;31.38;;
22268;SDS011;11303;50.772;19.670;2022-11-15T09:00:23;74.93;;;32.03;;
22268;SDS011;11303;50.772;19.670;2022-11-15T09:02:25;62.53;;;26.23;;
22268;SDS011;11303;50.772;19.670;2022-11-15T09:04:26;73.90;;;31.77;;
22268;SDS011;11303;50.772;19.670;2022-11-15T09:06:28;62.28;;;27.75;;
22268;SDS011;11303;50.772;19.670;2022-11-15T09:08:30;83.28;;;27.35;;
22268;SDS011;11303;50.772;19.670;2022-11-15T09:10:48;109.05;;;28.40;;
22268;SDS011;11303;50.772;19.670;2022-11-15T09:12:49;69.45;;;27.80;;
22268;SDS011;11303;50.772;19.670;2022-11-15T09:14:51;85.70;;;29.15;;
22268;SDS011;11303;50.772;19.670;2022-11-15T09:16:53;82.97;;;31.98;;
22268;SDS011;11303;50.772;19.670;2022-11-15T09:18:54;71.55;;;24.92;;
22268;SDS011;11303;50.772;19.670;2022-11-15T09:20:56;66.55;;;23.77;;
22268;SDS011;11303;50.772;19.670;2022-11-15T09:23:00;74.03;;;29.50;;
22268;SDS011;11303;50.772;19.670;2022-11-15T09:25:02;75.40;;;28.98;;
22268;SDS011;11303;50.772;19.670;2022-11-15T09:27:10;61.58;;;28.70;;
22268;SDS011;11303;50.772;19.670;2022-11-15T09:29:11;57.58;;;28.70;;
22268;SDS011;11303;50.772;19.670;2022-11-15T09:31:13;62.40;;;32.97;;
22268;SDS011;11303;50.772;19.670;2022-11-15T09:33:22;57.77;;;31.00;;
22268;SDS011;11303;50.772;19.670;2022-11-15T09:35:23;47.75;;;25.25;;
22268;SDS011;11303;50.772;19.670;2022-11-15T09:37:25;45.35;;;25.80;;
22268;SDS011;11303;50.772;19.670;2022-11-15T09:39:26;45.78;;;26.20;;
22268;SDS011;11303;50.772;19.670;2022-11-15T09:48:59;36.78;;;23.42;;
22268;SDS011;11303;50.772;19.670;2022-11-15T09:51:03;36.22;;;22.35;;
22268;SDS011;11303;50.772;19.670;2022-11-15T09:53:09;34.47;;;21.52;;
22268;SDS011;11303;50.772;19.670;2022-11-15T09:55:14;30.58;;;20.58;;
22268;SDS011;11303;50.772;19.670;2022-11-15T10:04:31;26.83;;;18.17;;
22268;SDS011;11303;50.772;19.670;2022-11-15T10:06:34;23.80;;;17.58;;
22268;SDS011;11303;50.772;19.670;2022-11-15T10:08:50;25.02;;;16.63;;
22268;SDS011;11303;50.772;19.670;2022-11-15T10:10:59;21.83;;;16.98;;
22268;SDS011;11303;50.772;19.670;2022-11-15T10:13:23;30.48;;;20.63;;
22268;SDS011;11303;50.772;19.670;2022-11-15T10:15:26;26.23;;;18.98;;
22268;SDS011;11303;50.772;19.670;2022-11-15T10:22:40;20.08;;;14.80;;
22268;SDS011;11303;50.772;19.670;2022-11-15T10:24:43;22.00;;;15.32;;
22268;SDS011;11303;50.772;19.670;2022-11-15T10:26:48;21.48;;;14.85;;
22268;SDS011;11303;50.772;19.670;2022-11-15T10:28:50;19.45;;;15.07;;
22268;SDS011;11303;50.772;19.670;2022-11-15T10:30:58;19.38;;;16.10;;
22268;SDS011;11303;50.772;19.670;2022-11-15T10:35:36;21.67;;;17.30;;
22268;SDS011;11303;50.772;19.670;2022-11-15T10:37:38;22.83;;;16.92;;
22268;SDS011;11303;50.772;19.670;2022-11-15T10:39:39;21.95;;;15.63;;
22268;SDS011;11303;50.772;19.670;2022-11-15T10:41:42;20.42;;;17.38;;
22268;SDS011;11303;50.772;19.670;2022-11-15T10:43:44;23.23;;;17.00;;
22268;SDS011;11303;50.772;19.670;2022-11-15T10:45:46;22.90;;;17.13;;
22268;SDS011;11303;50.772;19.670;2022-11-15T10:47:48;22.30;;;15.90;;
22268;SDS011;11303;50.772;19.670;2022-11-15T10:52:04;24.83;;;16.92;;
22268;SDS011;11303;50.772;19.670;2022-11-15T10:54:14;23.23;;;16.92;;
22268;SDS011;11303;50.772;19.670;2022-11-15T10:56:26;23.05;;;17.48;;
22268;SDS011;11303;50.772;19.670;2022-11-15T10:58:38;25.27;;;18.20;;
22268;SDS011;11303;50.772;19.670;2022-11-15T11:00:42;25.52;;;19.50;;
22268;SDS011;11303;50.772;19.670;2022-11-15T11:02:56;27.17;;;17.40;;
22268;SDS011;11303;50.772;19.670;2022-11-15T11:07:43;32.70;;;22.33;;
22268;SDS011;11303;50.772;19.670;2022-11-15T11:09:58;31.13;;;21.67;;
22268;SDS011;11303;50.772;19.670;2022-11-15T11:12:37;23.85;;;17.92;;
22268;SDS011;11303;50.772;19.670;2022-11-15T11:14:39;22.10;;;17.13;;
22268;SDS011;11303;50.772;19.670;2022-11-15T11:16:42;24.20;;;19.15;;
22268;SDS011;11303;50.772;19.670;2022-11-15T11:18:55;22.15;;;17.25;;
22268;SDS011;11303;50.772;19.670;2022-11-15T11:21:56;25.98;;;18.77;;
22268;SDS011;11303;50.772;19.670;2022-11-15T11:25:50;34.95;;;23.80;;
22268;SDS011;11303;50.772;19.670;2022-11-15T11:30:53;24.67;;;18.33;;
22268;SDS011;11303;50.772;19.670;2022-11-15T11:35:24;26.25;;;18.83;;
22268;SDS011;11303;50.772;19.670;2022-11-15T11:48:04;28.52;;;19.30;;
22268;SDS011;11303;50.772;19.670;2022-11-15T11:50:21;26.80;;;18.33;;
22268;SDS011;11303;50.772;19.670;2022-11-15T11:52:34;28.75;;;18.30;;
22268;SDS011;11303;50.772;19.670;2022-11-15T11:54:53;30.73;;;19.38;;
22268;SDS011;11303;50.772;19.670;2022-11-15T11:57:02;27.17;;;18.92;;
22268;SDS011;11303;50.772;19.670;2022-11-15T11:59:16;31.30;;;19.30;;
22268;SDS011;11303;50.772;19.670;2022-11-15T12:01:41;29.85;;;21.02;;
22268;SDS011;11303;50.772;19.670;2022-11-15T12:03:48;29.00;;;19.15;;
22268;SDS011;11303;50.772;19.670;2022-11-15T12:10:28;30.60;;;19.23;;
22268;SDS011;11303;50.772;19.670;2022-11-15T12:15:13;29.88;;;20.90;;
22268;SDS011;11303;50.772;19.670;2022-11-15T12:17:21;30.60;;;20.20;;
22268;SDS011;11303;50.772;19.670;2022-11-15T12:19:25;28.50;;;19.80;;
22268;SDS011;11303;50.772;19.670;2022-11-15T12:23:43;28.75;;;19.73;;
22268;SDS011;11303;50.772;19.670;2022-11-15T12:25:58;27.88;;;20.33;;
22268;SDS011;11303;50.772;19.670;2022-11-15T12:28:15;28.80;;;19.75;;
22268;SDS011;11303;50.772;19.670;2022-11-15T12:30:25;29.65;;;20.98;;
22268;SDS011;11303;50.772;19.670;2022-11-15T12:32:38;31.77;;;20.77;;
22268;SDS011;11303;50.772;19.670;2022-11-15T12:34:43;32.78;;;20.70;;
22268;SDS011;11303;50.772;19.670;2022-11-15T12:36:48;32.67;;;21.25;;
22268;SDS011;11303;50.772;19.670;2022-11-15T12:38:58;31.20;;;20.65;;
22268;SDS011;11303;50.772;19.670;2022-11-15T12:41:12;28.08;;;18.98;;
22268;SDS011;11303;50.772;19.670;2022-11-15T12:45:24;29.85;;;19.55;;
22268;SDS011;11303;50.772;19.670;2022-11-15T12:47:27;29.23;;;20.15;;
22268;SDS011;11303;50.772;19.670;2022-11-15T12:53:44;28.95;;;19.55;;
22268;SDS011;11303;50.772;19.670;2022-11-15T12:55:46;29.15;;;20.20;;
22268;SDS011;11303;50.772;19.670;2022-11-15T12:58:24;36.38;;;22.70;;
22268;SDS011;11303;50.772;19.670;2022-11-15T13:02:36;33.05;;;21.95;;
22268;SDS011;11303;50.772;19.670;2022-11-15T13:04:40;35.15;;;22.75;;
22268;SDS011;11303;50.772;19.670;2022-11-15T13:06:43;34.85;;;21.48;;
22268;SDS011;11303;50.772;19.670;2022-11-15T13:08:52;29.85;;;20.27;;
22268;SDS011;11303;50.772;19.670;2022-11-15T13:10:54;31.83;;;21.58;;
22268;SDS011;11303;50.772;19.670;2022-11-15T13:17:00;29.60;;;19.65;;
22268;SDS011;11303;50.772;19.670;2022-11-15T13:19:02;31.42;;;18.33;;
22268;SDS011;11303;50.772;19.670;2022-11-15T13:21:05;31.15;;;19.73;;
22268;SDS011;11303;50.772;19.670;2022-11-15T13:23:38;41.58;;;22.77;;
22268;SDS011;11303;50.772;19.670;2022-11-15T13:27:57;41.40;;;21.30;;
22268;SDS011;11303;50.772;19.670;2022-11-15T13:30:16;37.13;;;20.73;;
22268;SDS011;11303;50.772;19.670;2022-11-15T13:32:22;33.42;;;20.85;;
22268;SDS011;11303;50.772;19.670;2022-11-15T13:34:33;32.50;;;18.52;;